sensor_id;sensor_type;location;lat;lon;timestamp;pressure;altitude;pressure_sealevel;temperature;humidity
10700;BME280;5401;41.986;21.452;2023-05-02T00:01:45;98611.06;;;14.79;65.70
10700;BME280;5401;41.986;21.452;2023-05-02T00:04:13;98591.38;;;14.67;66.02
10700;BME280;5401;41.986;21.452;2023-05-02T00:06:41;98605.09;;;14.77;66.51
10700;BME280;5401;41.986;21.452;2023-05-02T00:09:11;98611.88;;;14.79;65.69
10700;BME280;5401;41.986;21.452;2023-05-02T00:11:38;98607.91;;;14.82;66.11
10700;BME280;5401;41.986;21.452;2023-05-02T00:14:06;98613.50;;;14.80;65.90
10700;BME280;5401;41.986;21.452;2023-05-02T00:16:33;98614.59;;;14.79;66.18
10700;BME280;5401;41.986;21.452;2023-05-02T00:19:02;98592.28;;;14.61;66.17
10700;BME280;5401;41.986;21.452;2023-05-02T00:21:29;98606.47;;;14.68;65.54
10700;BME280;5401;41.986;21.452;2023-05-02T00:23:57;98611.53;;;14.64;65.88
10700;BME280;5401;41.986;21.452;2023-05-02T00:26:25;98608.81;;;14.64;66.67
10700;BME280;5401;41.986;21.452;2023-05-02T00:28:53;98602.69;;;14.58;66.23
10700;BME280;5401;41.986;21.452;2023-05-02T00:31:21;98618.66;;;14.59;65.73
10700;BME280;5401;41.986;21.452;2023-05-02T00:33:48;98611.84;;;14.57;66.24
10700;BME280;5401;41.986;21.452;2023-05-02T00:36:18;98615.81;;;14.54;65.89
10700;BME280;5401;41.986;21.452;2023-05-02T00:38:46;98619.56;;;14.53;65.76
10700;BME280;5401;41.986;21.452;2023-05-02T00:41:13;98621.66;;;14.51;66.49
10700;BME280;5401;41.986;21.452;2023-05-02T00:43:42;98617.56;;;14.49;65.86
10700;BME280;5401;41.986;21.452;2023-05-02T00:46:10;98619.09;;;14.45;67.32
10700;BME280;5401;41.986;21.452;2023-05-02T00:48:38;98624.56;;;14.38;67.21
10700;BME280;5401;41.986;21.452;2023-05-02T00:51:06;98620.91;;;14.33;66.56
10700;BME280;5401;41.986;21.452;2023-05-02T00:53:38;98624.91;;;14.30;66.77
10700;BME280;5401;41.986;21.452;2023-05-02T00:56:06;98617.25;;;14.27;66.61
10700;BME280;5401;41.986;21.452;2023-05-02T00:58:35;98614.66;;;14.21;67.73
10700;BME280;5401;41.986;21.452;2023-05-02T01:01:13;98613.94;;;14.14;67.84
10700;BME280;5401;41.986;21.452;2023-05-02T01:03:51;98612.16;;;14.08;67.66
10700;BME280;5401;41.986;21.452;2023-05-02T01:06:30;98618.38;;;14.09;68.18
10700;BME280;5401;41.986;21.452;2023-05-02T01:09:12;98592.41;;;13.96;67.83
10700;BME280;5401;41.986;21.452;2023-05-02T01:11:47;98613.78;;;14.09;68.41
10700;BME280;5401;41.986;21.452;2023-05-02T01:14:16;98615.19;;;14.12;67.82
10700;BME280;5401;41.986;21.452;2023-05-02T01:16:45;98615.78;;;14.14;67.73
10700;BME280;5401;41.986;21.452;2023-05-02T01:19:32;98611.84;;;14.16;68.19
10700;BME280;5401;41.986;21.452;2023-05-02T01:22:01;98610.56;;;14.19;67.62
10700;BME280;5401;41.986;21.452;2023-05-02T01:24:36;98616.75;;;14.19;68.01
10700;BME280;5401;41.986;21.452;2023-05-02T01:27:13;98629.41;;;14.19;67.80
10700;BME280;5401;41.986;21.452;2023-05-02T01:29:44;98625.31;;;14.16;67.88
10700;BME280;5401;41.986;21.452;2023-05-02T01:32:14;98623.44;;;14.17;67.98
10700;BME280;5401;41.986;21.452;2023-05-02T01:34:44;98617.28;;;14.10;68.21
10700;BME280;5401;41.986;21.452;2023-05-02T01:37:14;98624.56;;;14.09;68.52
10700;BME280;5401;41.986;21.452;2023-05-02T01:39:45;98626.06;;;14.05;67.81
10700;BME280;5401;41.986;21.452;2023-05-02T01:42:13;98625.94;;;14.00;68.52
10700;BME280;5401;41.986;21.452;2023-05-02T01:44:45;98612.25;;;14.02;68.00
10700;BME280;5401;41.986;21.452;2023-05-02T01:47:14;98623.84;;;14.02;68.89
10700;BME280;5401;41.986;21.452;2023-05-02T01:49:42;98627.34;;;14.03;69.12
10700;BME280;5401;41.986;21.452;2023-05-02T01:52:11;98625.72;;;14.02;68.49
10700;BME280;5401;41.986;21.452;2023-05-02T01:54:40;98626.06;;;14.05;68.60
10700;BME280;5401;41.986;21.452;2023-05-02T01:57:08;98628.63;;;14.00;68.46
10700;BME280;5401;41.986;21.452;2023-05-02T01:59:39;98622.56;;;14.05;68.33
10700;BME280;5401;41.986;21.452;2023-05-02T02:02:10;98625.47;;;14.03;69.26
10700;BME280;5401;41.986;21.452;2023-05-02T02:04:39;98622.56;;;14.05;69.49
10700;BME280;5401;41.986;21.452;2023-05-02T02:07:08;98620.94;;;14.04;68.92
10700;BME280;5401;41.986;21.452;2023-05-02T02:09:37;98620.97;;;13.97;69.14
10700;BME280;5401;41.986;21.452;2023-05-02T02:12:05;98625.63;;;13.90;69.02
10700;BME280;5401;41.986;21.452;2023-05-02T02:14:35;98605.53;;;13.75;68.96
10700;BME280;5401;41.986;21.452;2023-05-02T02:17:11;98617.75;;;13.89;69.14
10700;BME280;5401;41.986;21.452;2023-05-02T02:19:41;98621.66;;;13.93;70.15
10700;BME280;5401;41.986;21.452;2023-05-02T02:22:12;98625.75;;;13.95;69.25
10700;BME280;5401;41.986;21.452;2023-05-02T02:24:40;98626.34;;;13.97;70.24
10700;BME280;5401;41.986;21.452;2023-05-02T02:27:09;98620.75;;;13.99;70.21
10700;BME280;5401;41.986;21.452;2023-05-02T02:29:37;98606.19;;;13.89;69.52
10700;BME280;5401;41.986;21.452;2023-05-02T02:32:05;98623.63;;;14.04;70.42
10700;BME280;5401;41.986;21.452;2023-05-02T02:34:32;98627.94;;;14.05;69.65
10700;BME280;5401;41.986;21.452;2023-05-02T02:37:06;98621.75;;;14.04;69.08
10700;BME280;5401;41.986;21.452;2023-05-02T02:39:43;98618.00;;;14.05;69.20
10700;BME280;5401;41.986;21.452;2023-05-02T02:42:22;98629.81;;;14.04;69.28
10700;BME280;5401;41.986;21.452;2023-05-02T02:44:55;98611.19;;;14.03;69.98
10700;BME280;5401;41.986;21.452;2023-05-02T02:47:28;98625.03;;;14.06;68.88
10700;BME280;5401;41.986;21.452;2023-05-02T02:50:08;98626.66;;;14.07;69.44
10700;BME280;5401;41.986;21.452;2023-05-02T02:52:47;98630.75;;;14.10;68.98
10700;BME280;5401;41.986;21.452;2023-05-02T02:55:28;98618.38;;;14.09;68.99
10700;BME280;5401;41.986;21.452;2023-05-02T02:57:59;98620.69;;;14.05;69.76
10700;BME280;5401;41.986;21.452;2023-05-02T03:00:28;98620.16;;;13.97;70.34
10700;BME280;5401;41.986;21.452;2023-05-02T03:02:59;98619.78;;;13.93;69.56
10700;BME280;5401;41.986;21.452;2023-05-02T03:05:28;98613.44;;;13.88;70.08
10700;BME280;5401;41.986;21.452;2023-05-02T03:07:59;98616.72;;;13.90;69.48
10700;BME280;5401;41.986;21.452;2023-05-02T03:10:27;98620.94;;;13.86;70.49
10700;BME280;5401;41.986;21.452;2023-05-02T03:12:54;98624.22;;;13.88;70.85
10700;BME280;5401;41.986;21.452;2023-05-02T03:18:25;98621.16;;;13.85;70.20
10700;BME280;5401;41.986;21.452;2023-05-02T03:20:52;98624.22;;;13.88;71.18
10700;BME280;5401;41.986;21.452;2023-05-02T03:23:21;98629.50;;;13.94;70.96
10700;BME280;5401;41.986;21.452;2023-05-02T03:25:49;98625.53;;;13.97;70.45
10700;BME280;5401;41.986;21.452;2023-05-02T03:28:17;98628.41;;;14.02;70.36
10700;BME280;5401;41.986;21.452;2023-05-02T03:30:44;98621.16;;;14.02;69.87
10700;BME280;5401;41.986;21.452;2023-05-02T03:33:12;98624.88;;;14.01;69.81
10700;BME280;5401;41.986;21.452;2023-05-02T03:35:39;98631.69;;;14.04;70.30
10700;BME280;5401;41.986;21.452;2023-05-02T03:38:08;98616.94;;;14.06;70.37
10700;BME280;5401;41.986;21.452;2023-05-02T03:40:37;98629.84;;;14.45;70.30
10700;BME280;5401;41.986;21.452;2023-05-02T03:43:04;98631.34;;;14.81;69.06
10700;BME280;5401;41.986;21.452;2023-05-02T03:45:31;98634.56;;;15.12;68.43
10700;BME280;5401;41.986;21.452;2023-05-02T03:47:59;98634.59;;;15.35;67.96
10700;BME280;5401;41.986;21.452;2023-05-02T03:50:27;98633.97;;;15.44;66.93
10700;BME280;5401;41.986;21.452;2023-05-02T03:52:54;98629.16;;;15.46;67.10
10700;BME280;5401;41.986;21.452;2023-05-02T03:55:22;98634.56;;;15.46;66.96
10700;BME280;5401;41.986;21.452;2023-05-02T03:57:51;98639.84;;;15.41;66.80
10700;BME280;5401;41.986;21.452;2023-05-02T04:00:19;98641.25;;;15.33;66.94
10700;BME280;5401;41.986;21.452;2023-05-02T04:02:47;98644.63;;;15.17;66.98
10700;BME280;5401;41.986;21.452;2023-05-02T04:05:15;98642.88;;;15.11;66.91
10700;BME280;5401;41.986;21.452;2023-05-02T04:07:43;98640.19;;;15.11;67.16
10700;BME280;5401;41.986;21.452;2023-05-02T04:10:10;98640.06;;;15.29;67.32
10700;BME280;5401;41.986;21.452;2023-05-02T04:12:41;98646.88;;;15.54;66.86
10700;BME280;5401;41.986;21.452;2023-05-02T04:15:10;98646.91;;;15.93;66.34
10700;BME280;5401;41.986;21.452;2023-05-02T04:17:38;98652.69;;;16.51;65.08
10700;BME280;5401;41.986;21.452;2023-05-02T04:20:06;98657.16;;;17.17;63.63
10700;BME280;5401;41.986;21.452;2023-05-02T04:22:34;98656.69;;;17.58;62.58
10700;BME280;5401;41.986;21.452;2023-05-02T04:25:01;98655.13;;;17.62;62.48
10700;BME280;5401;41.986;21.452;2023-05-02T04:27:29;98656.75;;;17.63;62.18
10700;BME280;5401;41.986;21.452;2023-05-02T04:29:56;98668.69;;;17.83;60.85
10700;BME280;5401;41.986;21.452;2023-05-02T04:32:25;98673.19;;;17.94;61.04
10700;BME280;5401;41.986;21.452;2023-05-02T04:34:53;98676.16;;;18.14;61.06
10700;BME280;5401;41.986;21.452;2023-05-02T04:37:20;98673.41;;;18.30;60.40
10700;BME280;5401;41.986;21.452;2023-05-02T04:39:48;98676.25;;;18.66;60.17
10700;BME280;5401;41.986;21.452;2023-05-02T04:42:16;98671.84;;;19.48;58.98
10700;BME280;5401;41.986;21.452;2023-05-02T04:44:43;98674.00;;;20.33;57.46
10700;BME280;5401;41.986;21.452;2023-05-02T04:47:10;98672.19;;;20.58;56.49
10700;BME280;5401;41.986;21.452;2023-05-02T04:49:39;98680.44;;;20.88;55.60
10700;BME280;5401;41.986;21.452;2023-05-02T04:52:08;98680.75;;;21.36;54.71
10700;BME280;5401;41.986;21.452;2023-05-02T04:54:35;98674.72;;;21.88;54.67
10700;BME280;5401;41.986;21.452;2023-05-02T04:57:03;98680.03;;;22.37;53.60
10700;BME280;5401;41.986;21.452;2023-05-02T04:59:32;98670.34;;;22.69;53.11
10700;BME280;5401;41.986;21.452;2023-05-02T05:02:00;98674.09;;;22.78;52.32
10700;BME280;5401;41.986;21.452;2023-05-02T05:04:27;98667.47;;;22.46;52.60
10700;BME280;5401;41.986;21.452;2023-05-02T05:06:56;98674.75;;;22.55;52.61
10700;BME280;5401;41.986;21.452;2023-05-02T05:09:24;98681.41;;;22.35;52.41
10700;BME280;5401;41.986;21.452;2023-05-02T05:11:52;98674.16;;;21.96;53.20
10700;BME280;5401;41.986;21.452;2023-05-02T05:14:19;98677.00;;;22.49;53.34
10700;BME280;5401;41.986;21.452;2023-05-02T05:16:47;98677.91;;;22.87;52.62
10700;BME280;5401;41.986;21.452;2023-05-02T05:19:14;98684.19;;;22.88;52.68
10700;BME280;5401;41.986;21.452;2023-05-02T05:21:42;98681.03;;;23.09;52.12
10700;BME280;5401;41.986;21.452;2023-05-02T05:24:11;98675.91;;;23.35;51.79
10700;BME280;5401;41.986;21.452;2023-05-02T05:26:38;98687.47;;;23.89;51.29
10700;BME280;5401;41.986;21.452;2023-05-02T05:29:06;98687.88;;;24.24;50.39
10700;BME280;5401;41.986;21.452;2023-05-02T05:31:33;98693.63;;;24.50;50.18
10700;BME280;5401;41.986;21.452;2023-05-02T05:34:01;98686.22;;;24.92;49.58
10700;BME280;5401;41.986;21.452;2023-05-02T05:36:29;98690.84;;;24.97;49.07
10700;BME280;5401;41.986;21.452;2023-05-02T05:38:57;98689.91;;;24.65;49.05
10700;BME280;5401;41.986;21.452;2023-05-02T05:41:26;98690.53;;;24.57;49.58
10700;BME280;5401;41.986;21.452;2023-05-02T05:43:53;98678.34;;;24.68;49.03
10700;BME280;5401;41.986;21.452;2023-05-02T05:46:21;98691.72;;;24.92;48.64
10700;BME280;5401;41.986;21.452;2023-05-02T05:48:48;98694.16;;;25.12;48.48
10700;BME280;5401;41.986;21.452;2023-05-02T05:51:16;98685.53;;;25.37;48.05
10700;BME280;5401;41.986;21.452;2023-05-02T05:53:43;98689.31;;;25.41;48.07
10700;BME280;5401;41.986;21.452;2023-05-02T05:56:12;98695.97;;;25.53;47.39
10700;BME280;5401;41.986;21.452;2023-05-02T05:58:41;98693.41;;;25.43;47.17
10700;BME280;5401;41.986;21.452;2023-05-02T06:01:09;98698.75;;;25.16;47.65
10700;BME280;5401;41.986;21.452;2023-05-02T06:03:36;98696.81;;;24.57;47.75
10700;BME280;5401;41.986;21.452;2023-05-02T06:06:04;98685.63;;;24.07;48.30
10700;BME280;5401;41.986;21.452;2023-05-02T06:08:32;98697.84;;;24.15;48.77
10700;BME280;5401;41.986;21.452;2023-05-02T06:10:59;98708.91;;;23.77;49.02
10700;BME280;5401;41.986;21.452;2023-05-02T06:13:27;98691.19;;;23.36;49.06
10700;BME280;5401;41.986;21.452;2023-05-02T06:15:59;98709.25;;;23.32;49.25
10700;BME280;5401;41.986;21.452;2023-05-02T06:18:27;98703.19;;;22.50;49.69
10700;BME280;5401;41.986;21.452;2023-05-02T06:20:54;98697.63;;;21.77;49.89
10700;BME280;5401;41.986;21.452;2023-05-02T06:23:22;98706.91;;;21.17;50.72
10700;BME280;5401;41.986;21.452;2023-05-02T06:25:50;98705.72;;;20.74;51.30
10700;BME280;5401;41.986;21.452;2023-05-02T06:28:17;98722.00;;;20.64;51.50
10700;BME280;5401;41.986;21.452;2023-05-02T06:30:44;98707.81;;;20.57;51.60
10700;BME280;5401;41.986;21.452;2023-05-02T06:33:15;98708.00;;;20.36;51.63
10700;BME280;5401;41.986;21.452;2023-05-02T06:35:42;98705.41;;;20.09;51.94
10700;BME280;5401;41.986;21.452;2023-05-02T06:38:09;98700.22;;;20.03;52.31
10700;BME280;5401;41.986;21.452;2023-05-02T06:40:37;98725.31;;;20.15;52.12
10700;BME280;5401;41.986;21.452;2023-05-02T06:43:10;98705.16;;;20.11;52.38
10700;BME280;5401;41.986;21.452;2023-05-02T06:45:37;98714.13;;;20.06;52.29
10700;BME280;5401;41.986;21.452;2023-05-02T06:48:05;98722.94;;;19.87;52.77
10700;BME280;5401;41.986;21.452;2023-05-02T06:50:34;98699.16;;;19.68;52.85
10700;BME280;5401;41.986;21.452;2023-05-02T06:53:03;98711.59;;;19.59;52.71
10700;BME280;5401;41.986;21.452;2023-05-02T06:55:31;98690.50;;;19.35;52.96
10700;BME280;5401;41.986;21.452;2023-05-02T06:57:58;98708.31;;;19.21;53.46
10700;BME280;5401;41.986;21.452;2023-05-02T07:00:26;98699.25;;;19.42;53.58
10700;BME280;5401;41.986;21.452;2023-05-02T07:02:53;98722.88;;;19.41;53.06
10700;BME280;5401;41.986;21.452;2023-05-02T07:05:21;98689.25;;;19.16;53.47
10700;BME280;5401;41.986;21.452;2023-05-02T07:07:50;98714.59;;;19.00;53.55
10700;BME280;5401;41.986;21.452;2023-05-02T07:10:17;98712.03;;;18.89;53.50
10700;BME280;5401;41.986;21.452;2023-05-02T07:12:45;98714.13;;;18.82;54.46
10700;BME280;5401;41.986;21.452;2023-05-02T07:15:12;98698.84;;;18.76;54.60
10700;BME280;5401;41.986;21.452;2023-05-02T07:17:41;98687.75;;;18.78;53.79
10700;BME280;5401;41.986;21.452;2023-05-02T07:20:09;98724.16;;;18.82;54.71
10700;BME280;5401;41.986;21.452;2023-05-02T07:25:08;98703.31;;;18.61;54.90
10700;BME280;5401;41.986;21.452;2023-05-02T07:27:36;98726.75;;;18.72;54.82
10700;BME280;5401;41.986;21.452;2023-05-02T07:30:04;98730.59;;;18.76;55.03
10700;BME280;5401;41.986;21.452;2023-05-02T07:34:39;98709.78;;;18.81;54.47
10700;BME280;5401;41.986;21.452;2023-05-02T07:37:06;98704.72;;;18.90;54.48
10700;BME280;5401;41.986;21.452;2023-05-02T07:39:34;98697.63;;;19.15;54.14
10700;BME280;5401;41.986;21.452;2023-05-02T07:42:01;98703.38;;;19.49;54.22
10700;BME280;5401;41.986;21.452;2023-05-02T07:44:29;98680.47;;;19.76;53.54
10700;BME280;5401;41.986;21.452;2023-05-02T07:46:56;98686.38;;;20.04;53.39
10700;BME280;5401;41.986;21.452;2023-05-02T07:49:24;98684.47;;;20.05;53.08
10700;BME280;5401;41.986;21.452;2023-05-02T07:51:52;98705.91;;;19.97;52.94
10700;BME280;5401;41.986;21.452;2023-05-02T07:55:14;98691.56;;;19.70;53.13
10700;BME280;5401;41.986;21.452;2023-05-02T07:57:41;98693.72;;;19.68;53.10
10700;BME280;5401;41.986;21.452;2023-05-02T08:00:10;98679.34;;;19.72;52.95
10700;BME280;5401;41.986;21.452;2023-05-02T08:02:37;98680.81;;;19.85;53.01
10700;BME280;5401;41.986;21.452;2023-05-02T08:05:05;98693.59;;;19.84;52.89
10700;BME280;5401;41.986;21.452;2023-05-02T08:07:33;98704.06;;;19.71;52.53
10700;BME280;5401;41.986;21.452;2023-05-02T08:10:01;98691.56;;;19.70;53.10
10700;BME280;5401;41.986;21.452;2023-05-02T08:12:30;98695.34;;;19.69;52.36
10700;BME280;5401;41.986;21.452;2023-05-02T08:14:57;98682.38;;;19.76;52.65
10700;BME280;5401;41.986;21.452;2023-05-02T08:17:25;98696.47;;;19.73;52.68
10700;BME280;5401;41.986;21.452;2023-05-02T08:19:54;98699.41;;;19.62;52.55
10700;BME280;5401;41.986;21.452;2023-05-02T08:22:21;98700.66;;;19.49;52.70
10700;BME280;5401;41.986;21.452;2023-05-02T08:24:49;98725.06;;;19.44;53.37
10700;BME280;5401;41.986;21.452;2023-05-02T08:27:16;98692.91;;;19.31;53.39
10700;BME280;5401;41.986;21.452;2023-05-02T08:29:45;98700.19;;;19.26;52.86
10700;BME280;5401;41.986;21.452;2023-05-02T08:32:12;98690.91;;;19.17;53.26
10700;BME280;5401;41.986;21.452;2023-05-02T08:34:40;98696.34;;;19.22;52.96
10700;BME280;5401;41.986;21.452;2023-05-02T08:37:08;98688.22;;;19.22;53.09
10700;BME280;5401;41.986;21.452;2023-05-02T08:39:37;98697.94;;;19.18;53.16
10700;BME280;5401;41.986;21.452;2023-05-02T08:42:05;98692.50;;;19.13;53.57
10700;BME280;5401;41.986;21.452;2023-05-02T08:44:33;98708.31;;;19.21;53.42
10700;BME280;5401;41.986;21.452;2023-05-02T08:47:03;98692.91;;;19.31;53.16
10700;BME280;5401;41.986;21.452;2023-05-02T08:49:31;98693.22;;;19.35;52.72
10700;BME280;5401;41.986;21.452;2023-05-02T08:51:59;98701.09;;;19.36;53.46
10700;BME280;5401;41.986;21.452;2023-05-02T08:54:27;98697.66;;;19.46;53.18
10700;BME280;5401;41.986;21.452;2023-05-02T08:56:55;98703.94;;;19.51;52.98
10700;BME280;5401;41.986;21.452;2023-05-02T08:59:24;98703.63;;;19.48;52.64
10700;BME280;5401;41.986;21.452;2023-05-02T09:01:54;98712.84;;;19.47;52.41
10700;BME280;5401;41.986;21.452;2023-05-02T09:04:30;98686.53;;;19.47;52.97
10700;BME280;5401;41.986;21.452;2023-05-02T09:06:58;98705.53;;;19.47;52.51
10700;BME280;5401;41.986;21.452;2023-05-02T09:09:25;98693.03;;;19.46;52.95
10700;BME280;5401;41.986;21.452;2023-05-02T09:11:54;98693.34;;;19.50;52.57
10700;BME280;5401;41.986;21.452;2023-05-02T09:14:21;98692.28;;;19.56;52.35
10700;BME280;5401;41.986;21.452;2023-05-02T09:16:49;98693.69;;;19.63;52.20
10700;BME280;5401;41.986;21.452;2023-05-02T09:19:23;98696.19;;;19.69;52.01
10700;BME280;5401;41.986;21.452;2023-05-02T09:21:58;98698.44;;;19.77;52.00
10700;BME280;5401;41.986;21.452;2023-05-02T09:24:26;98692.22;;;19.82;51.97
10700;BME280;5401;41.986;21.452;2023-05-02T09:26:58;98677.25;;;19.79;51.82
10700;BME280;5401;41.986;21.452;2023-05-02T09:29:28;98716.47;;;19.93;51.58
10700;BME280;5401;41.986;21.452;2023-05-02T09:32:00;98661.81;;;19.85;51.37
10700;BME280;5401;41.986;21.452;2023-05-02T09:34:28;98687.44;;;19.99;51.34
10700;BME280;5401;41.986;21.452;2023-05-02T09:36:58;98693.72;;;20.09;51.25
10700;BME280;5401;41.986;21.452;2023-05-02T09:39:27;98672.28;;;20.17;51.23
10700;BME280;5401;41.986;21.452;2023-05-02T09:41:55;98685.09;;;20.22;50.83
10700;BME280;5401;41.986;21.452;2023-05-02T09:44:24;98672.28;;;20.17;50.80
10700;BME280;5401;41.986;21.452;2023-05-02T09:46:53;98679.03;;;20.05;50.68
10700;BME280;5401;41.986;21.452;2023-05-02T09:49:38;98677.72;;;20.12;50.86
10700;BME280;5401;41.986;21.452;2023-05-02T09:52:10;98664.41;;;20.16;50.69
10700;BME280;5401;41.986;21.452;2023-05-02T09:54:38;98640.50;;;20.28;50.59
10700;BME280;5401;41.986;21.452;2023-05-02T09:57:06;98659.97;;;20.61;50.22
10700;BME280;5401;41.986;21.452;2023-05-02T09:59:35;98667.66;;;20.78;50.06
10700;BME280;5401;41.986;21.452;2023-05-02T10:02:05;98671.47;;;20.87;49.49
10700;BME280;5401;41.986;21.452;2023-05-02T10:04:35;98658.63;;;20.78;49.64
10700;BME280;5401;41.986;21.452;2023-05-02T10:07:03;98661.88;;;20.70;49.29
10700;BME280;5401;41.986;21.452;2023-05-02T10:09:34;98657.84;;;20.77;49.65
10700;BME280;5401;41.986;21.452;2023-05-02T10:12:03;98649.13;;;20.71;49.38
10700;BME280;5401;41.986;21.452;2023-05-02T10:14:38;98649.38;;;20.69;49.25
10700;BME280;5401;41.986;21.452;2023-05-02T10:17:12;98685.56;;;20.65;49.06
10700;BME280;5401;41.986;21.452;2023-05-02T10:19:44;98644.97;;;20.58;49.35
10700;BME280;5401;41.986;21.452;2023-05-02T10:22:18;98646.06;;;20.57;49.01
10700;BME280;5401;41.986;21.452;2023-05-02T10:24:48;98642.25;;;20.58;49.53
10700;BME280;5401;41.986;21.452;2023-05-02T10:27:15;98629.22;;;20.65;49.19
10700;BME280;5401;41.986;21.452;2023-05-02T10:29:43;98645.03;;;20.73;48.67
10700;BME280;5401;41.986;21.452;2023-05-02T10:32:12;98630.03;;;20.66;48.93
10700;BME280;5401;41.986;21.452;2023-05-02T10:34:41;98622.13;;;20.59;48.49
10700;BME280;5401;41.986;21.452;2023-05-02T10:37:10;98621.56;;;20.57;48.93
10700;BME280;5401;41.986;21.452;2023-05-02T10:39:38;98628.91;;;20.57;48.80
10700;BME280;5401;41.986;21.452;2023-05-02T10:42:07;98616.38;;;20.46;48.38
10700;BME280;5401;41.986;21.452;2023-05-02T10:44:36;98626.16;;;20.47;48.55
10700;BME280;5401;41.986;21.452;2023-05-02T10:47:19;98623.75;;;20.50;48.38
10700;BME280;5401;41.986;21.452;2023-05-02T10:49:51;98628.91;;;20.57;48.57
10700;BME280;5401;41.986;21.452;2023-05-02T10:52:26;98614.56;;;20.71;48.28
10700;BME280;5401;41.986;21.452;2023-05-02T10:55:14;98623.28;;;20.83;48.03
10700;BME280;5401;41.986;21.452;2023-05-02T10:58:21;98629.28;;;20.85;48.01
10700;BME280;5401;41.986;21.452;2023-05-02T11:00:49;98611.03;;;20.80;47.81
10700;BME280;5401;41.986;21.452;2023-05-02T11:06:13;98611.56;;;20.73;47.50
10700;BME280;5401;41.986;21.452;2023-05-02T11:08:42;98615.63;;;20.70;47.39
10700;BME280;5401;41.986;21.452;2023-05-02T11:11:37;98610.19;;;20.65;47.53
10700;BME280;5401;41.986;21.452;2023-05-02T11:14:07;98593.56;;;20.57;47.55
10700;BME280;5401;41.986;21.452;2023-05-02T11:17:05;98599.03;;;20.67;47.83
10700;BME280;5401;41.986;21.452;2023-05-02T11:22:34;98591.69;;;20.72;47.44
10700;BME280;5401;41.986;21.452;2023-05-02T11:25:02;98587.63;;;20.75;47.37
10700;BME280;5401;41.986;21.452;2023-05-02T11:27:36;98589.25;;;20.85;47.45
10700;BME280;5401;41.986;21.452;2023-05-02T11:30:07;98600.13;;;20.85;47.10
10700;BME280;5401;41.986;21.452;2023-05-02T11:33:11;98579.72;;;20.73;47.15
10700;BME280;5401;41.986;21.452;2023-05-02T11:35:41;98600.69;;;20.77;47.07
10700;BME280;5401;41.986;21.452;2023-05-02T11:38:10;98599.03;;;20.81;46.95
10700;BME280;5401;41.986;21.452;2023-05-02T11:40:37;98605.84;;;20.79;46.66
10700;BME280;5401;41.986;21.452;2023-05-02T11:43:15;98593.59;;;20.81;46.62
10700;BME280;5401;41.986;21.452;2023-05-02T11:45:44;98582.16;;;20.84;46.45
10700;BME280;5401;41.986;21.452;2023-05-02T11:48:14;98575.13;;;20.78;46.68
10700;BME280;5401;41.986;21.452;2023-05-02T11:50:42;98586.25;;;20.92;46.20
10700;BME280;5401;41.986;21.452;2023-05-02T11:53:11;98583.53;;;20.92;46.20
10700;BME280;5401;41.986;21.452;2023-05-02T11:55:46;98585.16;;;20.88;45.77
10700;BME280;5401;41.986;21.452;2023-05-02T11:58:15;98568.28;;;20.86;45.95
10700;BME280;5401;41.986;21.452;2023-05-02T12:00:45;98606.97;;;20.93;45.66
10700;BME280;5401;41.986;21.452;2023-05-02T12:03:21;98563.94;;;21.00;45.43
10700;BME280;5401;41.986;21.452;2023-05-02T12:05:49;98572.09;;;21.14;45.44
10700;BME280;5401;41.986;21.452;2023-05-02T12:08:18;98547.59;;;21.19;45.12
10700;BME280;5401;41.986;21.452;2023-05-02T12:10:46;98556.53;;;21.35;45.15
10700;BME280;5401;41.986;21.452;2023-05-02T12:13:13;98572.06;;;21.44;45.03
10700;BME280;5401;41.986;21.452;2023-05-02T12:15:41;98546.72;;;21.48;44.99
10700;BME280;5401;41.986;21.452;2023-05-02T12:18:11;98581.84;;;21.60;44.53
10700;BME280;5401;41.986;21.452;2023-05-02T12:20:40;98574.50;;;21.65;44.64
10700;BME280;5401;41.986;21.452;2023-05-02T12:23:08;98534.69;;;21.64;43.79
10700;BME280;5401;41.986;21.452;2023-05-02T12:25:37;98556.47;;;21.64;43.87
10700;BME280;5401;41.986;21.452;2023-05-02T12:28:05;98578.84;;;21.56;43.88
10700;BME280;5401;41.986;21.452;2023-05-02T12:30:34;98530.94;;;21.46;43.99
10700;BME280;5401;41.986;21.452;2023-05-02T12:33:03;98554.88;;;21.48;43.49
10700;BME280;5401;41.986;21.452;2023-05-02T12:35:33;98531.75;;;21.46;43.67
10700;BME280;5401;41.986;21.452;2023-05-02T12:38:09;98530.88;;;21.65;43.21
10700;BME280;5401;41.986;21.452;2023-05-02T12:40:37;98535.75;;;21.68;43.63
10700;BME280;5401;41.986;21.452;2023-05-02T12:43:06;98534.69;;;21.64;43.67
10700;BME280;5401;41.986;21.452;2023-05-02T12:45:37;98531.44;;;21.57;43.68
10700;BME280;5401;41.986;21.452;2023-05-02T12:48:18;98530.13;;;21.40;43.48
10700;BME280;5401;41.986;21.452;2023-05-02T12:50:48;98519.22;;;21.30;43.37
10700;BME280;5401;41.986;21.452;2023-05-02T12:53:16;98521.97;;;21.25;43.05
10700;BME280;5401;41.986;21.452;2023-05-02T12:55:43;98502.13;;;21.05;43.49
10700;BME280;5401;41.986;21.452;2023-05-02T12:58:11;98522.78;;;21.16;43.74
10700;BME280;5401;41.986;21.452;2023-05-02T13:00:40;98522.81;;;21.11;43.12
10700;BME280;5401;41.986;21.452;2023-05-02T13:03:09;98516.28;;;21.02;43.51
10700;BME280;5401;41.986;21.452;2023-05-02T13:05:36;98520.91;;;21.02;43.28
10700;BME280;5401;41.986;21.452;2023-05-02T13:08:05;98514.94;;;20.95;43.27
10700;BME280;5401;41.986;21.452;2023-05-02T13:10:33;98507.31;;;20.92;43.07
10700;BME280;5401;41.986;21.452;2023-05-02T13:13:00;98509.78;;;20.93;43.44
10700;BME280;5401;41.986;21.452;2023-05-02T13:15:28;98505.41;;;20.92;43.28
10700;BME280;5401;41.986;21.452;2023-05-02T13:17:56;98509.50;;;20.95;43.40
10700;BME280;5401;41.986;21.452;2023-05-02T13:20:24;98497.75;;;21.04;43.87
10700;BME280;5401;41.986;21.452;2023-05-02T13:22:51;98489.06;;;21.02;43.57
10700;BME280;5401;41.986;21.452;2023-05-02T13:25:20;98495.56;;;21.16;43.39
10700;BME280;5401;41.986;21.452;2023-05-02T13:27:48;98478.94;;;21.22;43.19